Time;durP1;ratioP1;P1;durP2;ratioP2;P2;SDS_P1;SDS_P2;PMS_P1;PMS_P2;Temp;Humidity;BMP_temperature;BMP_pressure;BME280_temperature;BME280_humidity;BME280_pressure;Samples;Min_cycle;Max_cycle;Signal;HPM_P1;HPM_P2
2021/05/31 00:00:51;;;;;;;6.28;5.03;;;;;;;8.50;71.27;101576.31;4919922;28;126290;-65
2021/05/31 00:03:17;;;;;;;6.57;5.03;;;;;;;8.67;71.20;101574.63;4868225;28;123113;-64
2021/05/31 00:05:43;;;;;;;5.90;4.95;;;;;;;8.63;70.79;101573.44;4903592;28;112485;-64
2021/05/31 00:08:10;;;;;;;5.40;4.90;;;;;;;8.50;71.38;101569.06;4904465;28;110115;-64
2021/05/31 00:10:36;;;;;;;6.82;5.68;;;;;;;8.77;70.89;101558.78;4903560;28;98901;-65
2021/05/31 00:13:02;;;;;;;7.97;5.85;;;;;;;8.71;70.81;101550.81;4901752;28;122671;-64
2021/05/31 00:15:29;;;;;;;6.20;5.60;;;;;;;8.62;71.12;101554.88;4902020;28;126795;-65
2021/05/31 00:17:55;;;;;;;7.40;5.57;;;;;;;8.41;71.45;101550.78;4884686;28;100496;-64
2021/05/31 00:20:21;;;;;;;6.00;5.32;;;;;;;8.17;72.73;101557.88;4903501;28;98713;-65
2021/05/31 00:22:47;;;;;;;7.32;5.78;;;;;;;8.38;72.08;101553.94;4902713;28;98002;-65
2021/05/31 00:25:14;;;;;;;7.28;5.53;;;;;;;8.62;71.10;101552.19;4884911;28;98501;-65
2021/05/31 00:27:40;;;;;;;6.32;5.28;;;;;;;8.70;70.40;101544.63;4913164;28;128311;-64
2021/05/31 00:30:07;;;;;;;6.03;5.43;;;;;;;8.47;71.29;101552.59;4921784;28;126937;-65
2021/05/31 00:32:33;;;;;;;5.75;5.10;;;;;;;8.14;72.34;101551.09;4921638;28;97803;-64
2021/05/31 00:34:59;;;;;;;5.95;5.32;;;;;;;8.14;72.83;101561.03;4915874;28;98430;-65
2021/05/31 00:37:25;;;;;;;6.28;5.68;;;;;;;8.05;72.64;101549.75;4901469;28;127566;-64
2021/05/31 00:39:51;;;;;;;6.20;5.22;;;;;;;7.89;73.21;101553.84;4901665;28;129289;-65
2021/05/31 00:42:17;;;;;;;6.32;5.43;;;;;;;8.19;72.33;101553.94;4884953;28;108061;-64
2021/05/31 00:44:43;;;;;;;5.97;5.38;;;;;;;8.12;71.93;101559.38;4899411;28;127994;-64
2021/05/31 00:47:09;;;;;;;6.63;5.25;;;;;;;8.21;71.60;101556.38;4920114;28;128745;-65
2021/05/31 00:49:37;;;;;;;6.15;5.55;;;;;;;8.10;72.55;101555.28;4883320;28;127899;-64
2021/05/31 00:52:07;;;;;;;7.90;5.40;;;;;;;8.06;71.62;101554.91;4902484;28;97965;-65
2021/05/31 00:54:34;;;;;;;6.50;5.80;;;;;;;8.10;71.60;101550.72;4884540;28;98529;-65
2021/05/31 00:57:00;;;;;;;6.15;5.50;;;;;;;8.12;71.38;101561.25;4901941;28;98191;-64
2021/05/31 00:59:26;;;;;;;6.28;5.47;;;;;;;7.98;71.49;101560.59;4884092;28;111007;-65
2021/05/31 01:01:52;;;;;;;5.75;5.25;;;;;;;7.96;71.44;101554.59;4904176;28;98009;-64
2021/05/31 01:04:19;;;;;;;5.63;5.10;;;;;;;8.01;71.52;101561.97;4901384;28;124661;-64
2021/05/31 01:07:34;;;;;;;5.80;5.30;;;;;;;7.79;72.01;101558.94;4896630;28;99129;-64
2021/05/31 01:10:41;;;;;;;5.75;5.15;;;;;;;7.57;72.62;101558.50;4893041;28;98274;-64
2021/05/31 01:13:40;;;;;;;5.60;4.93;;;;;;;7.73;71.73;101562.50;4902399;28;101004;-65
2021/05/31 01:16:16;;;;;;;5.82;5.22;;;;;;;7.71;71.65;101556.53;4873181;28;98312;-65
2021/05/31 01:18:47;;;;;;;9.32;5.63;;;;;;;7.68;71.89;101556.97;4884367;28;98646;-65
2021/05/31 01:22:01;;;;;;;5.93;5.35;;;;;;;7.46;72.26;101549.31;4900380;28;98177;-64
2021/05/31 01:25:02;;;;;;;5.82;5.10;;;;;;;7.25;72.96;101545.16;4893217;28;98019;-64
2021/05/31 01:28:15;;;;;;;6.68;5.53;;;;;;;7.18;73.04;101547.06;4895609;28;98671;-66
2021/05/31 01:30:44;;;;;;;7.03;5.28;;;;;;;7.28;72.83;101538.56;4903540;28;98579;-64
2021/05/31 01:33:15;;;;;;;7.30;5.35;;;;;;;7.25;72.94;101533.63;4919825;28;116835;-65
2021/05/31 01:35:41;;;;;;;6.55;5.35;;;;;;;7.44;72.04;101537.19;4921217;28;117781;-64
2021/05/31 01:38:07;;;;;;;6.05;5.45;;;;;;;7.59;71.60;101538.47;4902244;28;124924;-65
2021/05/31 01:40:33;;;;;;;6.93;5.18;;;;;;;7.49;71.84;101538.16;4866317;28;128859;-64
2021/05/31 01:43:04;;;;;;;5.88;5.18;;;;;;;7.47;71.69;101531.38;4884116;28;98093;-64
2021/05/31 01:45:31;;;;;;;6.50;5.45;;;;;;;7.09;72.34;101530.44;4884448;28;97773;-65
2021/05/31 01:47:58;;;;;;;8.63;5.55;;;;;;;6.78;73.44;101530.47;4867949;28;98394;-65
2021/05/31 01:50:25;;;;;;;5.72;5.13;;;;;;;6.70;73.80;101536.91;4890801;28;98787;-65
2021/05/31 01:52:51;;;;;;;6.13;5.53;;;;;;;7.06;73.24;101530.06;4896554;28;114815;-65
2021/05/31 01:55:17;;;;;;;5.80;5.18;;;;;;;6.95;72.84;101528.06;4882605;28;121379;-64
2021/05/31 01:57:44;;;;;;;6.32;5.13;;;;;;;6.60;73.95;101529.34;4901847;28;98673;-65
2021/05/31 02:00:11;;;;;;;6.45;5.68;;;;;;;7.09;73.13;101521.59;4883282;28;113836;-65
2021/05/31 02:02:37;;;;;;;5.97;5.30;;;;;;;7.14;72.12;101527.09;4901105;28;98441;-65
2021/05/31 02:05:08;;;;;;;5.80;5.18;;;;;;;6.73;73.81;101536.47;4867564;28;98027;-64
2021/05/31 02:07:38;;;;;;;9.00;5.35;;;;;;;6.92;72.72;101528.50;4912040;28;98878;-65
2021/05/31 02:10:08;;;;;;;7.35;5.78;;;;;;;6.89;72.81;101525.22;4920523;28;98445;-65
2021/05/31 02:12:54;;;;;;;8.70;6.53;;;;;;;7.02;72.44;101524.31;4920000;28;117249;-64
2021/05/31 02:15:46;;;;;;;8.25;5.88;;;;;;;7.08;72.69;101533.34;4888617;28;97862;-64
2021/05/31 02:18:40;;;;;;;7.95;5.97;;;;;;;7.01;72.24;101527.22;4903979;28;98824;-65
2021/05/31 02:21:12;;;;;;;7.95;5.30;;;;;;;7.03;72.61;101531.31;4894779;28;97870;-66
2021/05/31 02:23:40;;;;;;;5.90;5.07;;;;;;;7.09;72.11;101524.25;4901896;28;98538;-65
2021/05/31 02:26:16;;;;;;;5.80;5.05;;;;;;;6.94;72.42;101523.75;4867934;28;98059;-65
2021/05/31 02:28:45;;;;;;;6.47;5.40;;;;;;;6.92;72.20;101524.00;4900873;28;115961;-64
2021/05/31 02:31:11;;;;;;;6.47;5.65;;;;;;;6.94;72.24;101529.13;4884672;28;98850;-65
2021/05/31 02:33:38;;;;;;;5.97;5.20;;;;;;;6.75;72.37;101528.22;4883253;28;107723;-64
2021/05/31 02:36:06;;;;;;;6.00;5.07;;;;;;;6.70;72.92;101517.31;4899768;28;122773;-65
2021/05/31 02:38:33;;;;;;;6.13;5.15;;;;;;;6.66;73.29;101522.28;4900506;28;99259;-66
2021/05/31 02:40:59;;;;;;;7.43;5.75;;;;;;;6.83;72.28;101522.59;4900439;28;98896;-65
2021/05/31 02:43:25;;;;;;;6.10;5.30;;;;;;;6.70;72.80;101520.00;4882369;28;100300;-65
2021/05/31 02:45:51;;;;;;;6.90;5.50;;;;;;;6.41;73.03;101521.44;4884048;28;97849;-65
2021/05/31 02:48:17;;;;;;;5.78;5.18;;;;;;;6.57;71.80;101513.69;4906738;28;98198;-65
2021/05/31 02:50:43;;;;;;;6.20;5.60;;;;;;;6.36;72.73;101527.41;4912879;28;98416;-64
2021/05/31 02:53:09;;;;;;;6.47;5.03;;;;;;;6.08;73.96;101523.19;4899958;28;127269;-64
2021/05/31 02:55:37;;;;;;;6.00;5.10;;;;;;;6.18;74.19;101522.75;4866993;28;97976;-64
2021/05/31 02:58:03;;;;;;;6.05;5.20;;;;;;;5.97;75.39;101517.69;4898869;28;99124;-65
2021/05/31 03:00:29;;;;;;;6.68;5.97;;;;;;;5.74;74.75;101524.31;4898363;28;128343;-64
2021/05/31 03:02:55;;;;;;;7.93;5.32;;;;;;;6.14;74.26;101524.22;4918543;28;97905;-64
2021/05/31 03:05:28;;;;;;;6.75;5.45;;;;;;;6.35;73.08;101531.94;4919337;28;100120;-65
2021/05/31 03:07:54;;;;;;;;;;;;;;;6.18;72.70;101533.47;4898638;28;99392;-65
2021/05/31 03:10:20;;;;;;;6.18;5.00;;;;;;;6.18;72.52;101524.63;4920232;28;98760;-65
2021/05/31 03:12:46;;;;;;;5.90;4.90;;;;;;;6.15;73.44;101537.38;4919754;28;107557;-64
2021/05/31 03:15:15;;;;;;;6.38;5.43;;;;;;;6.19;73.31;101542.31;4881486;28;97848;-65
2021/05/31 03:17:42;;;;;;;7.40;5.53;;;;;;;6.17;73.00;101539.00;4907010;28;98240;-66
2021/05/31 03:20:09;;;;;;;6.63;5.82;;;;;;;5.83;75.00;101540.97;4900304;28;98723;-64
2021/05/31 03:22:35;;;;;;;8.23;5.38;;;;;;;5.99;74.49;101531.69;4899152;28;116159;-66
2021/05/31 03:25:02;;;;;;;7.20;5.78;;;;;;;6.12;73.31;101534.31;4882517;28;98210;-65
2021/05/31 03:27:28;;;;;;;8.50;5.95;;;;;;;6.06;74.01;101537.84;4882311;28;98397;-64
2021/05/31 03:29:54;;;;;;;7.60;6.88;;;;;;;6.02;73.19;101526.72;4898116;28;125664;-65
2021/05/31 03:32:20;;;;;;;8.55;7.38;;;;;;;6.08;73.28;101530.41;4901509;28;98268;-65
2021/05/31 03:34:46;;;;;;;8.88;6.60;;;;;;;6.18;73.71;101533.47;4900226;28;97678;-65
2021/05/31 03:37:12;;;;;;;8.68;6.55;;;;;;;6.31;72.88;101535.25;4899088;28;128192;-65
2021/05/31 03:39:38;;;;;;;7.60;6.80;;;;;;;6.44;71.96;101537.88;4898405;28;127297;-64
2021/05/31 03:42:05;;;;;;;7.65;6.85;;;;;;;6.46;71.85;101540.34;4919501;28;98007;-65
2021/05/31 03:44:31;;;;;;;8.43;6.93;;;;;;;6.50;72.00;101534.34;4906318;28;97854;-64
2021/05/31 03:46:57;;;;;;;7.32;6.47;;;;;;;6.50;71.44;101538.88;4899075;28;128798;-65
2021/05/31 03:49:23;;;;;;;8.30;6.85;;;;;;;6.52;71.41;101540.28;4898902;28;128194;-66
2021/05/31 03:51:49;;;;;;;9.25;6.43;;;;;;;6.74;70.88;101542.66;4898938;28;127019;-64
2021/05/31 03:54:15;;;;;;;7.05;6.35;;;;;;;6.69;71.22;101542.50;4898236;28;123680;-64
2021/05/31 03:56:41;;;;;;;8.65;7.10;;;;;;;6.62;71.55;101534.47;4899430;28;108225;-65
2021/05/31 03:59:08;;;;;;;9.18;7.07;;;;;;;6.61;71.55;101532.84;4898836;28;128098;-64
2021/05/31 04:01:34;;;;;;;6.72;6.00;;;;;;;6.81;71.43;101538.91;4900375;28;98069;-64
2021/05/31 04:04:00;;;;;;;8.25;6.30;;;;;;;6.82;71.51;101529.00;4899596;28;97777;-66
2021/05/31 04:11:55;;;;;;;6.78;6.10;;;;;;;7.06;70.83;101535.41;4906788;28;98548;-66
2021/05/31 04:14:22;;;;;;;7.10;6.10;;;;;;;7.08;70.98;101530.69;4918020;28;122204;-66
2021/05/31 04:16:50;;;;;;;6.82;6.05;;;;;;;7.14;70.89;101535.16;4881213;28;116525;-65
2021/05/31 04:19:18;;;;;;;7.30;6.57;;;;;;;7.04;71.88;101538.34;4901491;28;98850;-64
2021/05/31 04:21:47;;;;;;;7.90;6.18;;;;;;;6.99;73.02;101532.78;4919756;28;98048;-65
2021/05/31 04:24:13;;;;;;;7.68;6.88;;;;;;;7.24;72.33;101526.63;4900955;28;98006;-64
2021/05/31 04:26:39;;;;;;;7.57;6.78;;;;;;;7.25;72.77;101528.25;4896579;28;100325;-65
2021/05/31 04:29:09;;;;;;;7.25;6.50;;;;;;;7.34;72.21;101534.97;4914274;28;116735;-64
2021/05/31 04:31:35;;;;;;;8.20;6.75;;;;;;;7.45;72.24;101528.09;4894735;28;102722;-65
2021/05/31 04:34:03;;;;;;;8.50;7.70;;;;;;;7.53;72.59;101533.16;4917482;28;114850;-65
2021/05/31 04:36:29;;;;;;;8.27;7.43;;;;;;;7.53;72.78;101533.16;4916390;28;110350;-65
2021/05/31 04:38:55;;;;;;;8.70;7.80;;;;;;;7.74;72.77;101527.38;4914971;28;115825;-65
2021/05/31 04:41:21;;;;;;;8.68;7.80;;;;;;;7.81;72.79;101528.13;4902946;28;125921;-65
2021/05/31 04:43:48;;;;;;;9.95;8.02;;;;;;;8.09;72.20;101524.09;4915051;28;117019;-66
2021/05/31 04:46:14;;;;;;;9.98;8.98;;;;;;;7.99;72.99;101521.94;4917335;28;98423;-65
2021/05/31 04:48:40;;;;;;;9.93;8.93;;;;;;;8.35;72.30;101522.94;4899751;28;113462;-65
2021/05/31 04:51:06;;;;;;;9.80;8.80;;;;;;;8.32;72.64;101526.88;4915300;28;98430;-66
2021/05/31 04:53:32;;;;;;;9.52;8.63;;;;;;;8.55;72.03;101522.69;4915500;28;123401;-66
2021/05/31 04:56:01;;;;;;;9.65;8.68;;;;;;;8.66;71.67;101524.63;4900552;28;105013;-66
2021/05/31 04:58:27;;;;;;;9.00;8.10;;;;;;;8.77;71.46;101526.53;4918648;28;98510;-65
2021/05/31 05:00:53;;;;;;;10.02;9.00;;;;;;;8.88;70.91;101524.06;4917439;28;127343;-65
2021/05/31 05:03:19;;;;;;;10.02;9.02;;;;;;;9.05;70.50;101515.13;4917651;28;98188;-66
2021/05/31 05:05:46;;;;;;;10.32;8.90;;;;;;;9.51;69.02;101518.06;4900372;28;98060;-65
2021/05/31 05:08:12;;;;;;;9.65;8.70;;;;;;;9.62;69.05;101516.41;4897706;28;112482;-65
2021/05/31 05:10:38;;;;;;;9.73;8.82;;;;;;;9.80;67.98;101521.69;4915051;28;105186;-66
2021/05/31 05:13:04;;;;;;;10.93;8.68;;;;;;;10.02;67.60;101500.31;4916151;28;98180;-65
2021/05/31 05:15:30;;;;;;;10.02;8.80;;;;;;;10.22;66.32;101511.50;4918781;28;98734;-65
2021/05/31 05:17:57;;;;;;;9.80;8.60;;;;;;;9.94;67.31;101512.28;4914649;28;98070;-65
2021/05/31 05:20:26;;;;;;;9.70;8.63;;;;;;;9.83;68.20;101513.94;4916926;28;97928;-65
2021/05/31 05:22:52;;;;;;;9.88;8.98;;;;;;;10.02;68.02;101513.78;4918671;28;97892;-65
2021/05/31 05:25:18;;;;;;;9.23;8.32;;;;;;;10.16;67.43;101509.75;4917558;28;98341;-65
2021/05/31 05:27:45;;;;;;;11.93;8.88;;;;;;;10.32;67.32;101510.91;4914094;28;98742;-65
2021/05/31 05:30:14;;;;;;;9.05;8.23;;;;;;;10.59;66.65;101505.75;4900107;28;98365;-65
2021/05/31 05:32:47;;;;;;;9.00;8.10;;;;;;;11.20;65.44;101516.75;4899918;28;97974;-65
2021/05/31 05:38:09;;;;;;;9.23;8.32;;;;;;;11.81;63.20;101498.72;4912064;28;98721;-66
2021/05/31 05:43:14;;;;;;;9.82;8.38;;;;;;;12.55;60.96;101502.84;4917845;28;98282;-65
2021/05/31 05:45:50;;;;;;;8.52;7.72;;;;;;;12.70;60.95;101509.22;4914101;28;98498;-65
2021/05/31 05:48:16;;;;;;;9.52;8.60;;;;;;;13.15;59.65;101501.75;4896360;28;98662;-66
2021/05/31 05:50:42;;;;;;;8.60;7.80;;;;;;;14.18;56.31;101503.94;4915760;28;127625;-66
2021/05/31 05:53:08;;;;;;;8.07;7.28;;;;;;;17.28;47.29;101489.72;4897711;28;121822;-66
2021/05/31 05:55:35;;;;;;;7.63;6.82;;;;;;;18.37;44.20;101491.72;4898704;28;128129;-66
2021/05/31 05:58:01;;;;;;;6.95;6.43;;;;;;;18.48;43.89;101495.13;4892671;28;124067;-66
2021/05/31 06:00:29;;;;;;;6.97;6.38;;;;;;;18.87;42.23;101492.09;4911114;28;97957;-66
2021/05/31 06:02:55;;;;;;;6.95;6.35;;;;;;;19.99;40.17;101495.47;4913041;28;112934;-66
2021/05/31 06:05:22;;;;;;;6.60;6.10;;;;;;;19.04;42.41;101497.78;4917209;28;99204;-66
2021/05/31 06:07:48;;;;;;;6.07;5.57;;;;;;;20.23;39.65;101494.41;4915374;28;128076;-67
2021/05/31 06:10:15;;;;;;;5.38;4.88;;;;;;;20.68;37.77;101489.84;4914023;28;98020;-67
2021/05/31 06:12:41;;;;;;;5.15;4.70;;;;;;;20.22;38.02;101488.13;4917580;28;97838;-67
2021/05/31 06:15:08;;;;;;;5.10;4.60;;;;;;;22.97;33.41;101496.22;4898812;28;99124;-67
2021/05/31 06:17:34;;;;;;;4.68;4.22;;;;;;;23.65;32.04;101496.31;4897726;28;120660;-67
2021/05/31 06:20:02;;;;;;;4.75;3.80;;;;;;;25.19;28.65;101502.13;4915587;28;126815;-66
2021/05/31 06:22:28;;;;;;;4.15;3.80;;;;;;;24.47;29.89;101509.78;4912499;28;98113;-66
2021/05/31 06:24:55;;;;;;;4.15;3.85;;;;;;;23.71;31.54;101497.78;4917338;28;98413;-67
2021/05/31 06:27:21;;;;;;;4.13;3.70;;;;;;;25.05;29.90;101504.38;4913365;28;98975;-67
2021/05/31 06:29:47;;;;;;;4.57;3.53;;;;;;;24.90;28.45;101500.31;4916382;28;128043;-67
2021/05/31 06:32:13;;;;;;;3.90;3.50;;;;;;;23.31;30.58;101505.53;4918139;28;120035;-67
2021/05/31 06:34:39;;;;;;;3.22;2.92;;;;;;;22.16;32.42;101505.06;4920143;28;98416;-66
2021/05/31 06:37:05;;;;;;;4.10;3.40;;;;;;;23.19;32.38;101491.66;4919456;28;126434;-66
2021/05/31 06:39:31;;;;;;;4.03;3.20;;;;;;;22.65;32.75;101493.97;4918182;28;128567;-66
2021/05/31 06:41:57;;;;;;;3.83;3.00;;;;;;;21.40;35.50;101494.34;4911482;28;115891;-66
2021/05/31 06:44:23;;;;;;;4.15;3.20;;;;;;;21.51;36.10;101490.19;4902644;28;98472;-66
2021/05/31 06:46:49;;;;;;;5.13;3.08;;;;;;;21.55;35.52;101482.13;4902379;28;98836;-66
2021/05/31 06:49:15;;;;;;;3.47;3.08;;;;;;;21.25;36.04;101490.03;4901174;28;98012;-66
2021/05/31 06:51:41;;;;;;;5.15;3.40;;;;;;;21.67;35.89;101481.53;4881403;28;122918;-66
2021/05/31 06:54:08;;;;;;;3.83;3.47;;;;;;;20.95;37.30;101494.38;4901228;28;98341;-66
2021/05/31 06:56:34;;;;;;;4.28;3.05;;;;;;;20.77;38.01;101489.91;4883953;28;98545;-66
2021/05/31 06:59:00;;;;;;;5.32;3.25;;;;;;;20.41;39.22;101482.50;4900161;28;98547;-67
2021/05/31 07:01:26;;;;;;;3.42;2.92;;;;;;;21.96;35.76;101473.53;4898841;28;121139;-66
2021/05/31 07:03:52;;;;;;;4.05;3.50;;;;;;;22.07;35.37;101476.78;4882164;28;98212;-67
2021/05/31 07:06:18;;;;;;;4.10;3.53;;;;;;;22.40;34.87;101479.94;4900602;28;128658;-66
2021/05/31 07:08:44;;;;;;;5.57;3.88;;;;;;;22.37;34.52;101482.50;4911880;28;127025;-67
2021/05/31 07:11:13;;;;;;;6.47;3.40;;;;;;;21.73;36.67;101481.09;4917460;28;122635;-67
2021/05/31 07:13:41;;;;;;;3.50;3.20;;;;;;;22.05;34.46;101482.59;4918732;28;98722;-67
2021/05/31 07:16:09;;;;;;;3.50;3.20;;;;;;;21.33;37.14;101478.31;4900274;28;98379;-67
2021/05/31 07:18:35;;;;;;;3.20;2.90;;;;;;;22.05;34.53;101479.84;4900667;28;118023;-67
2021/05/31 07:21:02;;;;;;;5.13;3.58;;;;;;;22.21;34.82;101479.44;4884613;28;122927;-67
2021/05/31 07:23:28;;;;;;;4.43;3.08;;;;;;;22.03;34.91;101478.56;4868139;28;98361;-67
2021/05/31 07:25:54;;;;;;;3.97;3.20;;;;;;;22.15;34.23;101477.94;4882066;28;99072;-67
2021/05/31 07:28:20;;;;;;;4.30;2.90;;;;;;;22.08;34.32;101478.38;4900514;28;125423;-67
2021/05/31 07:30:46;;;;;;;3.65;2.92;;;;;;;22.52;33.65;101477.34;4901491;28;97775;-67
2021/05/31 07:33:13;;;;;;;2.95;2.60;;;;;;;22.55;34.16;101478.59;4907061;28;128371;-67
2021/05/31 07:35:40;;;;;;;3.78;2.60;;;;;;;22.44;33.66;101480.06;4918987;28;99282;-67
2021/05/31 07:38:06;;;;;;;4.50;3.00;;;;;;;22.77;32.82;101469.38;4919166;28;98569;-67
2021/05/31 07:40:32;;;;;;;3.42;2.50;;;;;;;22.76;34.03;101476.81;4918767;28;123214;-67
2021/05/31 07:42:58;;;;;;;6.18;2.78;;;;;;;23.64;30.90;101469.94;4919662;28;101680;-67
2021/05/31 07:45:24;;;;;;;4.40;3.00;;;;;;;22.54;33.95;101483.31;4920039;28;98626;-67
2021/05/31 07:47:50;;;;;;;5.05;2.95;;;;;;;23.09;32.86;101462.56;4919063;28;116224;-67
2021/05/31 07:50:17;;;;;;;3.13;2.70;;;;;;;23.83;33.15;101460.47;4919488;28;107600;-67
2021/05/31 07:52:43;;;;;;;3.22;2.50;;;;;;;24.39;31.15;101463.81;4918948;28;97900;-67
2021/05/31 07:55:11;;;;;;;4.93;2.40;;;;;;;24.18;31.55;101453.59;4906897;28;99258;-67
2021/05/31 07:57:39;;;;;;;5.70;2.58;;;;;;;25.49;29.69;101450.31;4901465;28;98263;-67
2021/05/31 08:00:07;;;;;;;6.88;2.22;;;;;;;24.86;31.00;101447.00;4878046;28;98240;-67
2021/05/31 08:02:35;;;;;;;4.45;2.22;;;;;;;26.62;28.32;101448.63;4894974;28;115948;-67
2021/05/31 08:05:01;;;;;;;3.08;2.00;;;;;;;25.86;29.38;101455.84;4900446;28;98671;-67
2021/05/31 08:07:27;;;;;;;2.97;1.88;;;;;;;25.64;29.31;101446.06;4901172;28;98217;-67
2021/05/31 08:09:53;;;;;;;3.38;2.42;;;;;;;25.29;28.97;101454.81;4917902;28;97692;-67
2021/05/31 08:12:20;;;;;;;2.40;2.17;;;;;;;25.22;29.56;101444.31;4917542;28;98938;-67
2021/05/31 08:14:46;;;;;;;2.83;2.30;;;;;;;27.01;27.00;101443.34;4919296;28;107464;-67
2021/05/31 08:17:13;;;;;;;3.92;2.35;;;;;;;26.33;27.61;101442.28;4911889;28;99018;-67
2021/05/31 08:19:39;;;;;;;4.03;2.50;;;;;;;25.34;29.22;101445.50;4902958;28;97821;-67
2021/05/31 08:22:08;;;;;;;4.13;2.33;;;;;;;27.27;26.48;101434.53;4884097;28;117567;-67
2021/05/31 08:24:34;;;;;;;2.67;2.05;;;;;;;28.12;25.93;101430.19;4885848;28;98459;-67
2021/05/31 08:27:00;;;;;;;2.60;1.95;;;;;;;27.55;25.76;101438.00;4885048;28;109298;-67
2021/05/31 08:29:27;;;;;;;2.50;1.80;;;;;;;28.06;25.64;101435.22;4902013;28;123093;-68
2021/05/31 08:31:53;;;;;;;3.97;2.03;;;;;;;26.71;26.61;101440.97;4901540;28;127641;-67
2021/05/31 08:34:19;;;;;;;3.15;1.85;;;;;;;27.15;25.90;101438.19;4884363;28;128611;-67
2021/05/31 08:36:45;;;;;;;3.63;3.08;;;;;;;28.48;24.87;101425.38;4902203;28;116931;-67
2021/05/31 08:39:11;;;;;;;3.50;2.08;;;;;;;29.44;23.80;101427.09;4901368;28;121780;-67
2021/05/31 08:41:38;;;;;;;2.38;1.20;;;;;;;29.82;19.68;101431.63;4906045;28;98853;-67
2021/05/31 08:44:05;;;;;;;2.08;1.10;;;;;;;29.20;21.27;101425.53;4921563;28;98586;-67
2021/05/31 08:46:31;;;;;;;3.15;1.90;;;;;;;31.02;19.68;101422.31;4899991;28;110755;-68
2021/05/31 08:48:58;;;;;;;2.47;1.55;;;;;;;30.50;20.37;101424.19;4885238;28;98245;-68
2021/05/31 08:51:24;;;;;;;1.88;1.30;;;;;;;31.76;18.69;101421.28;4901992;28;98372;-67
2021/05/31 08:53:50;;;;;;;3.70;1.35;;;;;;;32.05;18.52;101426.22;4920379;28;115159;-68
2021/05/31 08:56:17;;;;;;;2.08;1.42;;;;;;;30.06;20.46;101415.66;4920025;28;126693;-67
2021/05/31 08:58:44;;;;;;;3.70;1.45;;;;;;;31.18;19.88;101407.34;4902265;28;97730;-67
2021/05/31 09:01:10;;;;;;;2.03;1.35;;;;;;;31.12;19.98;101412.44;4901808;28;109685;-68
2021/05/31 09:03:36;;;;;;;3.17;1.20;;;;;;;30.87;21.03;101414.22;4884042;28;98329;-67
2021/05/31 09:06:09;;;;;;;4.00;1.42;;;;;;;32.99;17.59;101401.78;4877885;28;126998;-68
2021/05/31 09:08:35;;;;;;;5.95;1.08;;;;;;;32.52;17.51;101407.69;4893346;28;97965;-68
2021/05/31 09:11:05;;;;;;;1.65;1.30;;;;;;;32.37;17.40;101402.03;4883230;28;127971;-68
2021/05/31 09:13:37;;;;;;;2.58;1.10;;;;;;;29.93;18.79;101408.75;4879784;28;98629;-67
2021/05/31 09:16:03;;;;;;;1.85;0.80;;;;;;;28.45;20.93;101407.50;4883626;28;97879;-68
2021/05/31 09:18:29;;;;;;;2.50;1.10;;;;;;;25.49;23.96;101405.38;4901986;28;97759;-67
2021/05/31 09:20:55;;;;;;;2.60;0.93;;;;;;;23.91;26.23;101408.13;4908968;28;99059;-67
2021/05/31 09:23:21;;;;;;;2.90;1.05;;;;;;;24.22;25.35;101409.66;4901974;28;99819;-66
2021/05/31 09:25:47;;;;;;;3.05;1.10;;;;;;;24.54;25.08;101402.59;4901556;28;127670;-67
2021/05/31 09:28:13;;;;;;;1.50;0.88;;;;;;;23.58;27.13;101399.72;4883465;28;98452;-67
2021/05/31 09:30:42;;;;;;;1.80;1.23;;;;;;;23.36;26.79;101405.50;4874797;28;98471;-67
2021/05/31 09:33:13;;;;;;;2.97;1.00;;;;;;;22.83;26.77;101404.06;4881133;28;110435;-67
2021/05/31 09:35:41;;;;;;;2.70;1.10;;;;;;;23.05;27.98;101398.38;4902320;28;97860;-68
2021/05/31 09:38:07;;;;;;;1.55;1.20;;;;;;;25.96;23.76;101394.63;4902037;28;98157;-67
2021/05/31 09:40:33;;;;;;;2.42;1.20;;;;;;;28.54;19.72;101383.13;4901318;28;98706;-69
2021/05/31 09:43:02;;;;;;;2.33;1.10;;;;;;;28.81;21.07;101378.47;4884299;28;98719;-67
2021/05/31 09:45:33;;;;;;;2.75;1.10;;;;;;;29.65;19.52;101381.41;4901726;28;97957;-67
2021/05/31 09:48:00;;;;;;;3.08;1.20;;;;;;;27.39;21.55;101384.59;4909326;28;98106;-68
2021/05/31 09:50:29;;;;;;;1.80;1.30;;;;;;;28.99;19.33;101378.00;4901364;28;99119;-67
2021/05/31 09:53:12;;;;;;;2.42;1.20;;;;;;;29.31;18.77;101372.94;4901770;28;98601;-67
2021/05/31 09:55:46;;;;;;;3.03;1.38;;;;;;;30.34;18.93;101373.56;4905995;28;97742;-69
2021/05/31 09:58:17;;;;;;;2.78;1.48;;;;;;;30.14;18.12;101380.44;4902300;28;98364;-69
2021/05/31 10:00:51;;;;;;;3.70;1.60;;;;;;;33.19;17.07;101370.66;4915034;28;98005;-67
2021/05/31 10:03:23;;;;;;;2.72;1.20;;;;;;;28.72;20.64;101385.41;4920326;28;98443;-67
2021/05/31 10:06:06;;;;;;;1.80;1.20;;;;;;;28.19;20.70;101377.69;4920751;28;98007;-69
2021/05/31 10:11:02;;;;;;;3.55;1.00;;;;;;;26.70;23.35;101375.78;4883806;28;97930;-70
2021/05/31 10:13:29;;;;;;;2.30;1.02;;;;;;;26.03;24.15;101366.41;4902064;28;99118;-67
2021/05/31 10:15:56;;;;;;;2.15;1.25;;;;;;;28.19;20.88;101352.75;4892615;28;98566;-61
2021/05/31 10:18:22;;;;;;;1.88;1.20;;;;;;;27.87;20.53;101354.88;4902834;28;97899;-66
2021/05/31 10:20:48;;;;;;;2.53;1.10;;;;;;;26.54;22.11;101361.94;4894156;28;127041;-62
2021/05/31 10:23:15;;;;;;;2.33;1.30;;;;;;;27.38;24.07;101352.56;4851521;28;126870;-75
2021/05/31 10:25:51;;;;;;;1.55;0.90;;;;;;;25.82;22.78;101358.28;4867352;28;98112;-63
2021/05/31 10:28:20;;;;;;;3.33;1.10;;;;;;;27.44;23.20;101345.59;4884422;28;97934;-66
2021/05/31 10:31:01;;;;;;;2.42;1.00;;;;;;;26.08;22.92;101350.38;4886822;28;98774;-60
2021/05/31 10:33:27;;;;;;;4.05;1.10;;;;;;;27.70;21.03;101333.09;4884389;28;98650;-66
2021/05/31 10:35:55;;;;;;;3.25;1.02;;;;;;;30.04;19.23;101334.66;4901038;28;98033;-71
2021/05/31 10:38:23;;;;;;;1.90;0.93;;;;;;;28.65;20.98;101341.75;4918112;28;97940;-68
2021/05/31 10:40:53;;;;;;;3.47;1.10;;;;;;;28.54;19.90;101337.97;4910930;28;98672;-74
2021/05/31 10:43:25;;;;;;;2.50;1.10;;;;;;;25.41;23.45;101351.91;4898985;28;98139;-73
2021/05/31 10:46:02;;;;;;;1.90;1.15;;;;;;;26.77;23.65;101330.94;4918669;28;98459;-73
2021/05/31 10:48:30;;;;;;;2.15;1.20;;;;;;;25.58;25.07;101346.13;4892156;28;98198;-73
2021/05/31 10:50:59;;;;;;;2.92;1.05;;;;;;;25.13;25.40;101335.28;4866537;28;98770;-66
2021/05/31 10:53:31;;;;;;;2.22;1.38;;;;;;;27.93;21.35;101320.16;4897012;28;98430;-66
2021/05/31 10:56:10;;;;;;;5.50;1.42;;;;;;;29.25;21.12;101316.97;4900750;28;98039;-67
2021/05/31 10:58:50;;;;;;;3.33;1.00;;;;;;;26.86;23.07;101335.13;4886088;28;97907;-66
2021/05/31 11:01:27;;;;;;;2.42;1.27;;;;;;;24.76;25.88;101339.91;4908184;28;97839;-67
2021/05/31 11:04:00;;;;;;;2.75;1.30;;;;;;;23.38;28.07;101339.97;4920212;28;98289;-66
2021/05/31 11:06:29;;;;;;;1.73;1.10;;;;;;;22.74;28.77;101336.19;4902580;28;98673;-73
2021/05/31 11:09:23;;;;;;;2.58;1.30;;;;;;;23.68;28.43;101324.25;4900913;28;98163;-67
2021/05/31 11:11:54;;;;;;;2.92;1.35;;;;;;;25.53;25.48;101321.53;4912692;28;98157;-66
2021/05/31 11:14:39;;;;;;;2.10;1.30;;;;;;;27.51;22.79;101309.78;4918830;28;98543;-73
2021/05/31 11:17:16;;;;;;;2.30;1.38;;;;;;;28.54;20.53;101316.59;4902757;28;98295;-67
2021/05/31 11:19:47;;;;;;;2.08;1.38;;;;;;;28.60;21.54;101309.56;4915124;28;97745;-67
2021/05/31 11:22:24;;;;;;;1.70;1.17;;;;;;;27.81;21.51;101312.00;4900364;28;99277;-67
2021/05/31 11:25:02;;;;;;;1.88;1.00;;;;;;;27.02;23.37;101306.66;4900940;28;98874;-73
2021/05/31 11:27:35;;;;;;;2.60;1.27;;;;;;;29.11;20.85;101303.66;4883717;28;98557;-67
2021/05/31 11:30:10;;;;;;;2.22;1.20;;;;;;;28.81;20.50;101300.81;4883881;28;97975;-73
2021/05/31 11:32:36;;;;;;;5.18;1.00;;;;;;;25.75;24.04;101313.91;4900150;28;113817;-67
2021/05/31 11:35:08;;;;;;;2.28;1.10;;;;;;;27.61;21.95;101295.34;4900752;28;98434;-67
2021/05/31 11:37:34;;;;;;;;;;;;;;;28.80;20.85;101293.63;4901275;28;102194;-67
2021/05/31 11:40:01;;;;;;;2.13;1.05;;;;;;;27.72;22.20;101298.34;4904797;28;97962;-73
2021/05/31 11:42:27;;;;;;;1.95;1.20;;;;;;;28.16;21.37;101295.28;4918554;28;110888;-72
2021/05/31 11:44:57;;;;;;;2.33;1.30;;;;;;;27.81;22.03;101292.63;4919093;28;127794;-73
2021/05/31 11:47:28;;;;;;;2.92;0.93;;;;;;;28.12;21.38;101288.88;4914963;28;98420;-67